createdAt,value
2019-01-20T00:02:01.628Z,99797.27
2019-01-20T00:04:29.336Z,99799.42
2019-01-20T00:09:43.391Z,99799.50
2019-01-20T00:14:48.782Z,99800.12
2019-01-20T00:17:16.738Z,99800.12
2019-01-20T00:19:44.483Z,99805.83
2019-01-20T00:22:12.543Z,99805.83
2019-01-20T00:24:59.135Z,99809.62
2019-01-20T00:27:26.763Z,99806.28
2019-01-20T00:29:54.458Z,99805.93
2019-01-20T00:32:22.181Z,99806.41
2019-01-20T00:34:50.289Z,99806.41
2019-01-20T00:37:18.153Z,99796.23
2019-01-20T00:39:47.767Z,99805.67
2019-01-20T00:42:17.082Z,99802.72
2019-01-20T00:44:44.773Z,99802.72
2019-01-20T00:47:12.483Z,99809.23
2019-01-20T00:52:26.502Z,99807.53
2019-01-20T00:54:54.728Z,99806.25
2019-01-20T00:57:22.497Z,99803.25
2019-01-20T00:59:52.745Z,99803.23
2019-01-20T01:02:21.653Z,99798.83
2019-01-20T01:05:09.165Z,99806.12
2019-01-20T01:07:37.176Z,99801.34
2019-01-20T01:10:05.195Z,99801.75
2019-01-20T01:12:32.828Z,99806.95
2019-01-20T01:15:00.931Z,99803.94
2019-01-20T01:17:28.640Z,99802.66
2019-01-20T01:19:56.321Z,99801.93
2019-01-20T01:22:43.103Z,99801.14
2019-01-20T01:25:10.741Z,99801.14
2019-01-20T01:27:38.507Z,99799.91
2019-01-20T01:30:25.043Z,99804.34
2019-01-20T01:32:52.668Z,99804.34
2019-01-20T01:35:20.370Z,99790.18
2019-01-20T01:37:48.362Z,99790.18
2019-01-20T01:40:16.101Z,99795.70
2019-01-20T01:43:03.521Z,99795.70
2019-01-20T01:45:31.211Z,99797.41
2019-01-20T01:47:58.845Z,99803.45
2019-01-20T01:50:26.941Z,99802.07
2019-01-20T01:53:13.431Z,99796.86
2019-01-20T01:55:41.127Z,99800.67
2019-01-20T01:58:09.111Z,99803.25
2019-01-20T02:00:36.810Z,99810.07
2019-01-20T02:03:04.453Z,99807.86
2019-01-20T02:05:51.245Z,99812.55
2019-01-20T02:08:18.876Z,99812.55
2019-01-20T02:10:47.121Z,99810.53
2019-01-20T02:13:15.118Z,99810.53
2019-01-20T02:16:01.655Z,99812.38
2019-01-20T02:18:29.308Z,99814.66
2019-01-20T02:20:57.083Z,99821.33
2019-01-20T02:23:25.023Z,99820.13
2019-01-20T02:25:52.773Z,99817.16
2019-01-20T02:28:20.457Z,99817.16
2019-01-20T02:31:06.941Z,99820.73
2019-01-20T02:33:34.711Z,99827.70
2019-01-20T02:36:02.380Z,99823.38
2019-01-20T02:38:30.093Z,99826.04
2019-01-20T02:40:59.598Z,99829.95
2019-01-20T02:43:27.310Z,99829.95
2019-01-20T02:46:14.030Z,99821.37
2019-01-20T02:48:41.856Z,99830.52
2019-01-20T02:54:00.119Z,99833.22
2019-01-20T02:56:46.570Z,99830.73
2019-01-20T02:59:14.359Z,99833.87
2019-01-20T03:01:42.107Z,99833.91
2019-01-20T03:04:10.188Z,99833.91
2019-01-20T03:06:38.209Z,99844.64
2019-01-20T03:11:40.710Z,99839.45
2019-01-20T03:14:27.210Z,99826.52
2019-01-20T03:16:54.900Z,99826.52
2019-01-20T03:19:22.690Z,99835.61
2019-01-20T03:24:42.067Z,99836.50
2019-01-20T03:27:10.082Z,99831.79
2019-01-20T03:29:38.284Z,99832.30
2019-01-20T03:32:05.931Z,99831.88
2019-01-20T03:34:33.721Z,99833.19
2019-01-20T03:37:01.873Z,99834.08
2019-01-20T03:39:48.365Z,99840.97
2019-01-20T03:42:34.882Z,99840.95
2019-01-20T03:45:02.532Z,99836.19
2019-01-20T03:47:30.605Z,99836.19
2019-01-20T03:50:17.519Z,99837.97
2019-01-20T03:53:04.027Z,99835.39
2019-01-20T03:55:31.728Z,99835.39
2019-01-20T03:57:59.414Z,99829.78
2019-01-20T04:00:27.625Z,99829.78
2019-01-20T04:03:14.152Z,99825.79
2019-01-20T04:05:44.324Z,99830.16
2019-01-20T04:08:12.531Z,99830.16
2019-01-20T04:10:40.166Z,99831.09
2019-01-20T04:13:26.960Z,99831.14
2019-01-20T04:15:54.600Z,99826.45
2019-01-20T04:18:22.310Z,99827.83
2019-01-20T04:20:49.947Z,99827.83
2019-01-20T04:23:36.433Z,99823.64
2019-01-20T04:26:04.099Z,99823.64
2019-01-20T04:28:31.799Z,99824.20
2019-01-20T04:31:18.240Z,99827.28
2019-01-20T04:34:05.742Z,99819.51
2019-01-20T04:36:33.429Z,99822.16
2019-01-20T04:39:01.588Z,99821.81
2019-01-20T04:41:48.469Z,99817.53
2019-01-20T04:44:35.236Z,99814.94
2019-01-20T04:50:08.481Z,99822.74
2019-01-20T04:52:36.147Z,99822.74
2019-01-20T04:55:06.417Z,99816.39
2019-01-20T04:57:34.323Z,99813.01
2019-01-20T05:00:02.436Z,99810.48
2019-01-20T05:02:30.285Z,99814.79
2019-01-20T05:04:57.979Z,99814.79
2019-01-20T05:10:12.835Z,99819.07
2019-01-20T05:12:40.469Z,99819.07
2019-01-20T05:15:08.946Z,99831.13
2019-01-20T05:17:36.592Z,99827.67
2019-01-20T05:20:04.315Z,99828.55
2019-01-20T05:22:32.457Z,99825.14
2019-01-20T05:25:00.170Z,99829.03
2019-01-20T05:27:28.196Z,99831.14
2019-01-20T05:29:56.417Z,99831.14
2019-01-20T05:32:42.941Z,99833.26
2019-01-20T05:35:29.461Z,99831.14
2019-01-20T05:38:15.953Z,99837.63
2019-01-20T05:40:43.665Z,99835.45
2019-01-20T05:43:11.287Z,99831.20
2019-01-20T05:45:57.825Z,99833.82
2019-01-20T05:48:25.534Z,99832.53
2019-01-20T05:50:53.236Z,99829.05
2019-01-20T05:53:40.152Z,99829.05
2019-01-20T05:56:07.857Z,99831.20
2019-01-20T05:58:35.920Z,99829.51
2019-01-20T06:06:30.374Z,99841.08
2019-01-20T06:08:58.951Z,99850.58
2019-01-20T06:11:26.712Z,99850.58
2019-01-20T06:13:57.005Z,99849.82
2019-01-20T06:16:25.028Z,99845.12
2019-01-20T06:18:52.778Z,99855.08
2019-01-20T06:21:20.442Z,99852.98
2019-01-20T06:23:48.141Z,99852.98
2019-01-20T06:26:16.263Z,99853.41
2019-01-20T06:28:43.957Z,99870.28
2019-01-20T06:31:11.663Z,99868.98
2019-01-20T06:33:58.475Z,99866.02
2019-01-20T06:36:26.161Z,99866.95
2019-01-20T06:39:12.909Z,99873.02
2019-01-20T06:41:40.620Z,99874.80
2019-01-20T06:44:08.327Z,99876.56
2019-01-20T06:46:36.081Z,99875.28
2019-01-20T06:49:04.204Z,99875.28
2019-01-20T06:51:31.912Z,99871.87
2019-01-20T06:53:59.537Z,99877.88
2019-01-20T06:56:27.623Z,99870.43
2019-01-20T06:58:55.267Z,99870.43
2019-01-20T07:01:42.077Z,99879.42
2019-01-20T07:04:09.786Z,99879.42
2019-01-20T07:06:37.481Z,99888.49
2019-01-20T07:09:05.362Z,99892.84
2019-01-20T07:11:51.802Z,99895.87
2019-01-20T07:14:19.884Z,99893.33
2019-01-20T07:16:47.732Z,99893.33
2019-01-20T07:21:50.035Z,99894.63
2019-01-20T07:24:17.786Z,99907.59
2019-01-20T07:26:45.763Z,99907.59
2019-01-20T07:29:13.918Z,99911.06
2019-01-20T07:31:41.637Z,99915.83
2019-01-20T07:34:09.318Z,99918.00
2019-01-20T07:36:37.080Z,99921.89
2019-01-20T07:39:05.247Z,99921.89
2019-01-20T07:41:37.958Z,99914.59
2019-01-20T07:44:07.986Z,99919.35
2019-01-20T07:46:59.201Z,99930.53
2019-01-20T07:49:42.602Z,99930.53
2019-01-20T07:52:10.299Z,99927.89
2019-01-20T07:54:57.209Z,99929.58
2019-01-20T07:57:25.301Z,99935.98
2019-01-20T07:59:52.977Z,99934.23
2019-01-20T08:02:21.087Z,99935.92
2019-01-20T08:04:48.831Z,99935.92
2019-01-20T08:07:16.548Z,99942.34
2019-01-20T08:09:44.268Z,99950.46
2019-01-20T08:12:12.287Z,99950.46
2019-01-20T08:14:59.261Z,99958.56
2019-01-20T08:17:27.063Z,99958.56
2019-01-20T08:19:55.422Z,99958.91
2019-01-20T08:22:23.113Z,99956.00
2019-01-20T08:24:50.751Z,99956.00
2019-01-20T08:27:19.773Z,99960.89
2019-01-20T08:29:49.743Z,99960.89
2019-01-20T08:32:18.437Z,99967.52
2019-01-20T08:34:46.238Z,99967.52
2019-01-20T08:37:14.359Z,99967.88
2019-01-20T08:39:44.454Z,99967.88
2019-01-20T08:44:45.029Z,99979.03
2019-01-20T08:47:31.452Z,99979.03
2019-01-20T08:49:59.146Z,99977.57
2019-01-20T08:52:27.177Z,99977.55
2019-01-20T08:54:54.819Z,99977.55
2019-01-20T08:57:22.465Z,99977.31
2019-01-20T08:59:53.640Z,99985.44
2019-01-20T09:02:21.395Z,99990.98
2019-01-20T09:04:49.374Z,99990.98
2019-01-20T09:07:17.345Z,99995.45
2019-01-20T09:09:45.052Z,99995.45
2019-01-20T09:12:12.710Z,99993.48
2019-01-20T09:14:59.263Z,99998.69
2019-01-20T09:17:26.924Z,99998.69
2019-01-20T09:20:13.462Z,100006.19
2019-01-20T09:22:53.488Z,100003.23
2019-01-20T09:25:10.471Z,100000.75
2019-01-20T09:27:41.419Z,100006.82
2019-01-20T09:30:09.082Z,100006.82
2019-01-20T09:32:36.736Z,100006.70
2019-01-20T09:35:07.285Z,100011.42
2019-01-20T09:37:53.855Z,100006.94
2019-01-20T09:40:40.338Z,100011.07
2019-01-20T09:43:08.042Z,100017.44
2019-01-20T09:45:54.580Z,100020.77
2019-01-20T09:48:22.218Z,100026.48
2019-01-20T09:50:49.911Z,100021.05
2019-01-20T09:53:36.393Z,100021.05
2019-01-20T09:56:22.940Z,100020.36
2019-01-20T09:58:50.834Z,100023.45
2019-01-20T10:01:18.542Z,100023.45
2019-01-20T10:03:46.605Z,100009.94
2019-01-20T10:06:14.698Z,100014.83
2019-01-20T10:08:45.449Z,100018.23
2019-01-20T10:11:31.901Z,100021.95
2019-01-20T10:14:02.236Z,100021.95
2019-01-20T10:16:49.023Z,100008.00
2019-01-20T10:19:16.735Z,100008.00
2019-01-20T10:21:48.444Z,100000.11
2019-01-20T10:24:16.081Z,99989.50
2019-01-20T10:26:43.812Z,99989.50
2019-01-20T10:29:13.658Z,99987.70
2019-01-20T10:37:11.035Z,99986.52
2019-01-20T10:39:38.698Z,99982.47
2019-01-20T10:42:08.308Z,99991.81
2019-01-20T10:47:22.594Z,99984.69
2019-01-20T10:49:50.220Z,99988.05
2019-01-20T10:55:04.553Z,99983.35
2019-01-20T10:57:32.322Z,99987.52
2019-01-20T11:00:00.087Z,99981.34
2019-01-20T11:05:06.227Z,99980.28
2019-01-20T11:07:33.272Z,99982.42
2019-01-20T11:10:01.266Z,99983.28
2019-01-20T11:12:31.351Z,99982.27
2019-01-20T11:14:59.322Z,99978.76
2019-01-20T11:17:33.333Z,99978.76
2019-01-20T11:20:01.408Z,99977.44
2019-01-20T11:22:29.197Z,99983.25
2019-01-20T11:25:00.539Z,99979.09
2019-01-20T11:27:47.045Z,99972.70
2019-01-20T11:35:45.231Z,99978.03
2019-01-20T11:38:12.958Z,99977.10
2019-01-20T11:40:40.628Z,99971.09
2019-01-20T11:43:08.671Z,99961.80
2019-01-20T11:45:57.841Z,99972.58
2019-01-20T11:48:25.813Z,99969.91
2019-01-20T11:50:55.317Z,99969.91
2019-01-20T11:53:24.174Z,99968.47
2019-01-20T11:56:15.896Z,99968.47
2019-01-20T11:58:46.221Z,99969.00
2019-01-20T12:01:14.262Z,99969.00
2019-01-20T12:03:45.582Z,99977.05
2019-01-20T12:06:14.903Z,99975.32
2019-01-20T12:08:43.108Z,99981.58
2019-01-20T12:11:24.117Z,99981.58
2019-01-20T12:13:40.926Z,99983.51
2019-01-20T12:16:09.012Z,99996.59
2019-01-20T12:18:36.692Z,99996.59
2019-01-20T12:21:04.662Z,99987.06
2019-01-20T12:23:51.215Z,99990.84
2019-01-20T12:26:19.193Z,99993.84
2019-01-20T12:28:47.441Z,99997.73
2019-01-20T12:31:15.562Z,100004.04
2019-01-20T12:33:43.217Z,99995.05
2019-01-20T12:36:29.755Z,100005.42
2019-01-20T12:38:57.714Z,100009.84
2019-01-20T12:41:25.411Z,100009.84
2019-01-20T12:46:58.249Z,100007.19
2019-01-20T12:49:27.924Z,100007.19
2019-01-20T12:51:55.962Z,100002.13
2019-01-20T12:54:25.896Z,100005.48
2019-01-20T12:56:53.571Z,100005.48
2019-01-20T12:59:21.702Z,100003.05
2019-01-20T13:01:49.766Z,100001.23
2019-01-20T13:04:17.533Z,100001.23
2019-01-20T13:06:49.896Z,100003.36
2019-01-20T13:09:17.588Z,100008.76
2019-01-20T13:11:46.150Z,100003.30
2019-01-20T13:14:38.820Z,100005.19
2019-01-20T13:17:02.136Z,100006.40
2019-01-20T13:19:30.202Z,100009.11
2019-01-20T13:21:57.883Z,100004.00
2019-01-20T13:24:29.780Z,100007.33
2019-01-20T13:26:59.871Z,100012.53
2019-01-20T13:29:35.294Z,100012.53
2019-01-20T13:32:03.320Z,100013.56
2019-01-20T13:34:31.006Z,100016.02
2019-01-20T13:36:58.755Z,100019.41
2019-01-20T13:39:26.875Z,100020.25
2019-01-20T13:41:54.527Z,100015.78
2019-01-20T13:44:46.191Z,100030.91
2019-01-20T13:47:10.720Z,100030.91
2019-01-20T13:49:39.537Z,100029.90
2019-01-20T13:52:10.198Z,100029.90
2019-01-20T13:54:41.469Z,100027.14
2019-01-20T13:57:27.960Z,100026.67
2019-01-20T13:59:55.638Z,100033.95
2019-01-20T14:02:23.338Z,100035.16
2019-01-20T14:04:55.722Z,100035.16
2019-01-20T14:07:23.503Z,100033.70
2019-01-20T14:09:51.300Z,100039.47
2019-01-20T14:12:19.379Z,100036.03
2019-01-20T14:14:53.662Z,100041.30
2019-01-20T14:17:16.456Z,100041.30
2019-01-20T14:19:46.747Z,100045.05
2019-01-20T14:22:18.074Z,100045.05
2019-01-20T14:24:45.849Z,100047.90
2019-01-20T14:27:32.312Z,100055.28
2019-01-20T14:32:39.171Z,100050.46
2019-01-20T14:35:06.903Z,100044.18
2019-01-20T14:37:34.587Z,100046.50
2019-01-20T14:40:02.713Z,100048.34
2019-01-20T14:42:30.404Z,100049.28
2019-01-20T14:45:01.219Z,100048.50
2019-01-20T14:47:33.200Z,100048.50
2019-01-20T14:50:00.917Z,100045.48
2019-01-20T14:52:28.619Z,100051.95
2019-01-20T14:54:56.639Z,100051.95
2019-01-20T14:57:24.406Z,100055.05
2019-01-20T14:59:52.215Z,100053.08
2019-01-20T15:02:23.175Z,100056.14
2019-01-20T15:04:51.024Z,100057.75
2019-01-20T15:07:18.639Z,100060.63
2019-01-20T15:09:49.271Z,100069.52
2019-01-20T15:15:08.958Z,100075.59
2019-01-20T15:17:35.755Z,100081.27
2019-01-20T15:20:03.469Z,100091.13
2019-01-20T15:22:33.175Z,100090.50
2019-01-20T15:25:00.817Z,100090.50
2019-01-20T15:27:30.286Z,100100.66
2019-01-20T15:29:58.324Z,100100.98
2019-01-20T15:32:26.040Z,100114.52
2019-01-20T15:34:53.693Z,100105.77
2019-01-20T15:37:24.450Z,100105.77
2019-01-20T15:39:54.158Z,100108.08
2019-01-20T15:42:22.144Z,100108.08
2019-01-20T15:44:53.031Z,100113.14
2019-01-20T15:47:20.709Z,100118.06
2019-01-20T15:49:48.452Z,100125.49
2019-01-20T15:52:16.534Z,100125.49
2019-01-20T15:54:47.300Z,100131.57
2019-01-20T15:57:16.599Z,100133.34
2019-01-20T15:59:44.620Z,100132.02
2019-01-20T16:02:31.546Z,100137.64
2019-01-20T16:05:03.389Z,100152.34
2019-01-20T16:07:31.051Z,100152.34
2019-01-20T16:09:58.755Z,100156.86
2019-01-20T16:12:45.346Z,100161.50
2019-01-20T16:15:13.014Z,100161.81
2019-01-20T16:17:40.725Z,100163.82
2019-01-20T16:20:08.750Z,100164.88
2019-01-20T16:22:37.967Z,100178.59
2019-01-20T16:25:05.814Z,100174.84
2019-01-20T16:27:37.229Z,100172.13
2019-01-20T16:30:03.492Z,100177.47
2019-01-20T16:32:31.422Z,100181.93
2019-01-20T16:34:59.633Z,100186.44
2019-01-20T16:37:27.420Z,100186.44
2019-01-20T16:39:58.182Z,100194.42
2019-01-20T16:42:26.352Z,100196.45
2019-01-20T16:44:56.495Z,100194.44
2019-01-20T16:47:26.043Z,100194.44
2019-01-20T16:50:15.102Z,100200.38
2019-01-20T16:53:03.907Z,100195.29
2019-01-20T16:55:31.901Z,100195.29
2019-01-20T16:57:59.994Z,100204.60
2019-01-20T17:00:29.964Z,100204.47
2019-01-20T17:02:58.259Z,100219.37
2019-01-20T17:05:27.076Z,100219.37
2019-01-20T17:07:55.298Z,100223.11
2019-01-20T17:10:23.437Z,100227.55
2019-01-20T17:12:51.104Z,100227.69
2019-01-20T17:15:18.785Z,100236.52
2019-01-20T17:17:48.712Z,100236.52
2019-01-20T17:20:18.115Z,100236.27
2019-01-20T17:22:46.275Z,100239.34
2019-01-20T17:25:14.314Z,100239.34
2019-01-20T17:27:46.463Z,100237.76
2019-01-20T17:30:14.263Z,100237.76
2019-01-20T17:32:44.010Z,100236.58
2019-01-20T17:35:14.150Z,100228.90
2019-01-20T17:37:41.881Z,100228.90
2019-01-20T17:40:28.338Z,100233.31
2019-01-20T17:42:56.414Z,100235.17
2019-01-20T17:45:24.637Z,100235.17
2019-01-20T17:47:52.345Z,100238.77
2019-01-20T17:50:27.184Z,100240.13
2019-01-20T17:52:55.298Z,100245.94
2019-01-20T17:55:26.313Z,100246.84
2019-01-20T17:57:53.978Z,100246.84
2019-01-20T18:00:22.432Z,100250.34
2019-01-20T18:02:53.271Z,100254.78
2019-01-20T18:05:21.084Z,100259.21
2019-01-20T18:08:04.278Z,100261.44
2019-01-20T18:10:21.784Z,100261.44
2019-01-20T18:12:49.438Z,100265.90
2019-01-20T18:15:20.123Z,100265.90
2019-01-20T18:17:47.837Z,100269.11
2019-01-20T18:20:15.594Z,100269.11
2019-01-20T18:22:43.741Z,100275.68
2019-01-20T18:28:18.295Z,100285.52
2019-01-20T18:30:45.973Z,100285.22
2019-01-20T18:33:13.907Z,100287.08
2019-01-20T18:35:43.958Z,100291.66
2019-01-20T18:38:11.600Z,100291.66
2019-01-20T18:40:43.848Z,100291.72
2019-01-20T18:43:11.683Z,100298.02
2019-01-20T18:45:41.371Z,100298.02
2019-01-20T18:50:46.368Z,100307.44
2019-01-20T18:53:14.195Z,100311.39
2019-01-20T18:55:42.724Z,100311.39
2019-01-20T18:58:10.489Z,100308.09
2019-01-20T19:00:38.298Z,100315.99
2019-01-20T19:03:08.697Z,100314.80
2019-01-20T19:05:36.528Z,100312.30
2019-01-20T19:08:04.576Z,100311.91
2019-01-20T19:10:32.672Z,100311.02
2019-01-20T19:13:00.370Z,100311.02
2019-01-20T19:15:29.046Z,100309.71
2019-01-20T19:17:57.348Z,100315.47
2019-01-20T19:20:24.980Z,100315.47
2019-01-20T19:22:52.787Z,100321.11
2019-01-20T19:25:39.309Z,100327.73
2019-01-20T19:28:06.974Z,100323.96
2019-01-20T19:30:36.869Z,100323.96
2019-01-20T19:33:07.822Z,100333.18
2019-01-20T19:35:35.930Z,100331.42
2019-01-20T19:38:03.593Z,100330.98
2019-01-20T19:40:34.003Z,100330.98
2019-01-20T19:45:36.317Z,100339.23
2019-01-20T19:48:04.423Z,100350.98
2019-01-20T19:50:32.155Z,100350.98
2019-01-20T19:53:02.784Z,100348.52
2019-01-20T19:55:50.771Z,100348.52
2019-01-20T19:58:37.222Z,100356.56
2019-01-20T20:01:05.473Z,100353.18
2019-01-20T20:03:34.719Z,100358.09
2019-01-20T20:06:09.179Z,100360.33
2019-01-20T20:08:35.315Z,100360.33
2019-01-20T20:11:05.248Z,100369.65
2019-01-20T20:14:04.315Z,100364.95
2019-01-20T20:16:23.499Z,100371.94
2019-01-20T20:18:51.031Z,100371.94
2019-01-20T20:21:18.972Z,100375.02
2019-01-20T20:23:46.586Z,100388.58
2019-01-20T20:26:17.758Z,100388.58
2019-01-20T20:28:45.602Z,100399.06
2019-01-20T20:31:16.333Z,100397.83
2019-01-20T20:33:44.476Z,100397.83
2019-01-20T20:36:12.217Z,100397.95
2019-01-20T20:38:42.288Z,100397.95
2019-01-20T20:41:25.326Z,100399.67
2019-01-20T20:43:43.107Z,100393.59
2019-01-20T20:46:10.829Z,100393.59
2019-01-20T20:48:38.918Z,100400.13
2019-01-20T20:51:06.643Z,100400.13
2019-01-20T20:53:34.339Z,100405.34
2019-01-20T20:56:20.886Z,100414.09
2019-01-20T20:58:49.350Z,100408.95
2019-01-20T21:04:10.567Z,100417.65
2019-01-20T21:09:15.313Z,100420.86
2019-01-20T21:11:45.352Z,100420.86
2019-01-20T21:14:31.827Z,100435.24
2019-01-20T21:16:59.506Z,100435.24
2019-01-20T21:19:46.039Z,100437.06
2019-01-20T21:22:13.703Z,100437.06
2019-01-20T21:24:58.460Z,100439.69
2019-01-20T21:27:35.322Z,100440.20
2019-01-20T21:32:53.452Z,100454.58
2019-01-20T21:35:41.823Z,100452.83
2019-01-20T21:38:09.612Z,100453.28
2019-01-20T21:40:37.274Z,100453.28
2019-01-20T21:43:06.092Z,100458.85
2019-01-20T21:48:20.725Z,100467.52
2019-01-20T21:50:51.620Z,100467.52
2019-01-20T21:53:20.965Z,100462.38
2019-01-20T21:55:49.627Z,100471.46
2019-01-20T21:58:37.104Z,100469.33
2019-01-20T22:01:18.029Z,100469.75
2019-01-20T22:03:34.862Z,100473.69
2019-01-20T22:06:02.527Z,100473.69
2019-01-20T22:08:33.133Z,100471.05
2019-01-20T22:11:02.047Z,100472.30
2019-01-20T22:13:30.800Z,100472.30
2019-01-20T22:16:03.834Z,100474.48
2019-01-20T22:18:33.406Z,100480.19
2019-01-20T22:21:01.171Z,100477.63
2019-01-20T22:23:47.683Z,100477.63
2019-01-20T22:26:15.376Z,100482.83
2019-01-20T22:28:46.301Z,100480.69
2019-01-20T22:31:14.302Z,100486.30
2019-01-20T22:33:43.019Z,100486.34
2019-01-20T22:36:10.646Z,100482.88
2019-01-20T22:38:38.853Z,100486.34
2019-01-20T22:41:06.622Z,100485.09
2019-01-20T22:43:34.278Z,100485.09
2019-01-20T22:46:02.848Z,100488.15
2019-01-20T22:48:30.488Z,100494.30
2019-01-20T22:51:12.322Z,100495.60
2019-01-20T22:53:27.570Z,100495.60
2019-01-20T22:56:14.113Z,100502.63
2019-01-20T22:58:41.813Z,100502.63
2019-01-20T23:01:09.880Z,100510.89
2019-01-20T23:03:56.432Z,100511.34
2019-01-20T23:06:24.152Z,100506.20
2019-01-20T23:08:51.875Z,100506.20
2019-01-20T23:11:20.100Z,100514.00
2019-01-20T23:13:47.723Z,100514.00
2019-01-20T23:16:15.428Z,100520.10
2019-01-20T23:18:43.106Z,100526.58
2019-01-20T23:21:11.234Z,100523.98
2019-01-20T23:23:38.967Z,100523.98
2019-01-20T23:26:07.055Z,100524.89
2019-01-20T23:28:34.817Z,100524.89
2019-01-20T23:31:05.949Z,100525.77
2019-01-20T23:33:33.649Z,100525.77
2019-01-20T23:36:01.365Z,100528.81
2019-01-20T23:38:29.501Z,100518.89
2019-01-20T23:40:57.161Z,100518.89
2019-01-20T23:43:26.578Z,100518.02
2019-01-20T23:45:54.608Z,100522.78
2019-01-20T23:48:22.273Z,100525.37
2019-01-20T23:50:50.349Z,100517.66
2019-01-20T23:53:18.046Z,100517.66
2019-01-20T23:56:04.594Z,100521.12
2019-01-20T23:58:32.250Z,100521.12
